This is the latest recevied weather packets stored in our database for station/object K6CED. If no packets are shown the sender has not sent any weather packets the latest 10 day(s).
| Time | Temp. | Humidity | Pressure | Rain* | Wind** | Luminosity | Snow |
|---|---|---|---|---|---|---|---|
| 1777823438 | 13.33° C | 98% | 1016.3 hPa | 0 mm | - | 141 W/m² | - |
| 1777823136 | 13.33° C | 98% | 1016.6 hPa | 0 mm | - | 123 W/m² | - |
| 1777822833 | 13.33° C | 99% | 1016.5 hPa | 0 mm | - | 118 W/m² | - |
| 1777822531 | 13.33° C | 99% | 1016.2 hPa | 0 mm | - | 120 W/m² | - |
| 1777822228 | 13.33° C | 99% | 1016.3 hPa | 0 mm | - | 116 W/m² | - |
| 1777821926 | 13.33° C | 99% | 1016.2 hPa | 0 mm | - | 99 W/m² | - |
| 1777821624 | 13.33° C | 99% | 1016.2 hPa | 0 mm | - | 68 W/m² | - |
| 1777821322 | 13.33° C | 99% | 1016.3 hPa | 0 mm | - | 59 W/m² | - |
| 1777821018 | 13.33° C | 99% | 1016.2 hPa | 0 mm | - | 80 W/m² | - |
| 1777820714 | 13.33° C | 99% | 1016.3 hPa | 0 mm | - | 62 W/m² | - |
| 1777820410 | 13.33° C | 99% | 1016 hPa | 0 mm | - | 72 W/m² | - |
| 1777820108 | 13.33° C | 99% | 1015.8 hPa | 0 mm | - | 84 W/m² | - |
| 1777819805 | 13.33° C | 99% | 1015.9 hPa | 0 mm | - | 84 W/m² | - |
| 1777819503 | 13.33° C | 99% | 1015.8 hPa | 0 mm | - | 77 W/m² | - |
| 1777819200 | 13.33° C | 99% | 1015.8 hPa | 0 mm | - | 66 W/m² | - |
| 1777818897 | 13.33° C | 99% | 1015.8 hPa | 0 mm | - | 72 W/m² | - |
| 1777818593 | 13.33° C | 99% | 1015.8 hPa | 0 mm | - | 66 W/m² | - |
| 1777818290 | 12.78° C | 99% | 1015.8 hPa | 0 mm | - | 62 W/m² | - |
| 1777817986 | 12.78° C | 99% | 1015.8 hPa | 0 mm | - | 55 W/m² | - |
| 1777817684 | 12.78° C | 99% | 1015.9 hPa | 0 mm | - | 49 W/m² | - |
| 1777817381 | 12.78° C | 99% | 1015.9 hPa | 0 mm | - | 41 W/m² | - |
| 1777817077 | 12.78° C | 99% | 1015.8 hPa | 0 mm | - | 39 W/m² | - |
| 1777816774 | 12.78° C | 99% | 1015.7 hPa | 0 mm | - | 32 W/m² | - |
| 1777816472 | 13.33° C | 99% | 1015.7 hPa | 0 mm | - | 30 W/m² | - |
| 1777816169 | 12.78° C | 99% | 1015.8 hPa | 0.51 mm | - | 22 W/m² | - |
* Rain latest hour (hover to see other rain measurements)
** Current wind speed in m/s (hover to see current wind gust speed)